sensor_id;sensor_type;location;lat;lon;timestamp;temperature;humidity
52321;DHT22;38261;54.090;13.382;2024-03-22T00:01:03;7.60;99.90
52321;DHT22;38261;54.090;13.382;2024-03-22T00:02:25;7.70;99.90
52321;DHT22;38261;54.090;13.382;2024-03-22T00:03:46;7.70;99.90
52321;DHT22;38261;54.090;13.382;2024-03-22T00:05:07;7.60;99.90
52321;DHT22;38261;54.090;13.382;2024-03-22T00:06:28;7.60;99.90
52321;DHT22;38261;54.090;13.382;2024-03-22T00:07:50;7.60;99.90
52321;DHT22;38261;54.090;13.382;2024-03-22T00:09:12;7.60;99.90
52321;DHT22;38261;54.090;13.382;2024-03-22T00:10:33;7.60;99.90
52321;DHT22;38261;54.090;13.382;2024-03-22T00:11:54;7.60;99.90
52321;DHT22;38261;54.090;13.382;2024-03-22T00:13:15;7.60;99.90
52321;DHT22;38261;54.090;13.382;2024-03-22T00:14:36;7.60;99.90
52321;DHT22;38261;54.090;13.382;2024-03-22T00:15:57;7.60;99.90
52321;DHT22;38261;54.090;13.382;2024-03-22T00:17:18;7.60;99.90
52321;DHT22;38261;54.090;13.382;2024-03-22T00:18:40;7.60;99.90
52321;DHT22;38261;54.090;13.382;2024-03-22T00:20:01;7.60;99.90
52321;DHT22;38261;54.090;13.382;2024-03-22T00:21:23;7.60;99.90
52321;DHT22;38261;54.090;13.382;2024-03-22T00:22:44;7.60;99.90
52321;DHT22;38261;54.090;13.382;2024-03-22T00:24:05;7.60;99.90
52321;DHT22;38261;54.090;13.382;2024-03-22T00:25:26;7.60;99.90
52321;DHT22;38261;54.090;13.382;2024-03-22T00:26:47;7.60;99.90
52321;DHT22;38261;54.090;13.382;2024-03-22T00:28:08;7.60;99.90
52321;DHT22;38261;54.090;13.382;2024-03-22T00:29:30;7.60;99.90
52321;DHT22;38261;54.090;13.382;2024-03-22T00:30:51;7.60;99.90
52321;DHT22;38261;54.090;13.382;2024-03-22T00:32:12;7.60;99.90
52321;DHT22;38261;54.090;13.382;2024-03-22T00:33:33;7.60;99.90
52321;DHT22;38261;54.090;13.382;2024-03-22T00:34:55;7.60;99.90
52321;DHT22;38261;54.090;13.382;2024-03-22T00:36:16;7.50;99.90
52321;DHT22;38261;54.090;13.382;2024-03-22T00:37:37;7.50;99.90
52321;DHT22;38261;54.090;13.382;2024-03-22T00:38:58;7.50;99.90
52321;DHT22;38261;54.090;13.382;2024-03-22T00:40:19;7.50;99.90
52321;DHT22;38261;54.090;13.382;2024-03-22T00:41:41;7.50;99.90
52321;DHT22;38261;54.090;13.382;2024-03-22T00:43:02;7.50;99.90
52321;DHT22;38261;54.090;13.382;2024-03-22T00:44:24;7.50;99.90
52321;DHT22;38261;54.090;13.382;2024-03-22T00:45:45;7.50;99.90
52321;DHT22;38261;54.090;13.382;2024-03-22T00:47:06;7.50;99.90
52321;DHT22;38261;54.090;13.382;2024-03-22T00:48:27;7.50;99.90
52321;DHT22;38261;54.090;13.382;2024-03-22T00:49:48;7.50;99.90
52321;DHT22;38261;54.090;13.382;2024-03-22T00:51:09;7.50;99.90
52321;DHT22;38261;54.090;13.382;2024-03-22T00:52:31;7.50;99.90
52321;DHT22;38261;54.090;13.382;2024-03-22T00:53:53;7.50;99.90
52321;DHT22;38261;54.090;13.382;2024-03-22T00:55:14;7.50;99.90
52321;DHT22;38261;54.090;13.382;2024-03-22T00:56:35;7.50;99.90
52321;DHT22;38261;54.090;13.382;2024-03-22T00:57:57;7.50;99.90
52321;DHT22;38261;54.090;13.382;2024-03-22T00:59:18;7.50;99.90
52321;DHT22;38261;54.090;13.382;2024-03-22T01:00:39;7.50;99.90
52321;DHT22;38261;54.090;13.382;2024-03-22T01:02:01;7.50;99.90
52321;DHT22;38261;54.090;13.382;2024-03-22T01:03:22;7.60;99.90
52321;DHT22;38261;54.090;13.382;2024-03-22T01:04:44;7.60;99.90
52321;DHT22;38261;54.090;13.382;2024-03-22T01:06:05;7.60;99.90
52321;DHT22;38261;54.090;13.382;2024-03-22T01:07:26;7.50;99.90
52321;DHT22;38261;54.090;13.382;2024-03-22T01:08:48;7.50;99.90
52321;DHT22;38261;54.090;13.382;2024-03-22T01:10:10;7.50;99.90
52321;DHT22;38261;54.090;13.382;2024-03-22T01:11:31;7.50;99.90
52321;DHT22;38261;54.090;13.382;2024-03-22T01:12:52;7.60;99.90
52321;DHT22;38261;54.090;13.382;2024-03-22T01:14:13;7.50;99.90
52321;DHT22;38261;54.090;13.382;2024-03-22T01:15:34;7.60;99.90
52321;DHT22;38261;54.090;13.382;2024-03-22T01:16:56;7.50;99.90
52321;DHT22;38261;54.090;13.382;2024-03-22T01:18:17;7.60;99.90
52321;DHT22;38261;54.090;13.382;2024-03-22T01:19:39;7.60;99.90
52321;DHT22;38261;54.090;13.382;2024-03-22T01:21:00;7.60;99.90
52321;DHT22;38261;54.090;13.382;2024-03-22T01:22:21;7.60;99.90
52321;DHT22;38261;54.090;13.382;2024-03-22T01:23:42;7.60;99.90
52321;DHT22;38261;54.090;13.382;2024-03-22T01:25:04;7.60;99.90
52321;DHT22;38261;54.090;13.382;2024-03-22T01:26:25;7.50;99.90
52321;DHT22;38261;54.090;13.382;2024-03-22T01:27:46;7.50;99.90
52321;DHT22;38261;54.090;13.382;2024-03-22T01:29:08;7.60;99.90
52321;DHT22;38261;54.090;13.382;2024-03-22T01:30:29;7.60;99.90
52321;DHT22;38261;54.090;13.382;2024-03-22T01:31:51;7.60;99.90
52321;DHT22;38261;54.090;13.382;2024-03-22T01:33:12;7.60;99.90
52321;DHT22;38261;54.090;13.382;2024-03-22T01:34:33;7.60;99.90
52321;DHT22;38261;54.090;13.382;2024-03-22T01:35:55;7.60;99.90
52321;DHT22;38261;54.090;13.382;2024-03-22T01:37:17;7.60;99.90
52321;DHT22;38261;54.090;13.382;2024-03-22T01:38:38;7.60;99.90
52321;DHT22;38261;54.090;13.382;2024-03-22T01:39:59;7.60;99.90
52321;DHT22;38261;54.090;13.382;2024-03-22T01:41:20;7.60;99.90
52321;DHT22;38261;54.090;13.382;2024-03-22T01:42:41;7.60;99.90
52321;DHT22;38261;54.090;13.382;2024-03-22T01:44:02;7.60;99.90
52321;DHT22;38261;54.090;13.382;2024-03-22T01:45:24;7.60;99.90
52321;DHT22;38261;54.090;13.382;2024-03-22T01:46:48;7.60;99.90
52321;DHT22;38261;54.090;13.382;2024-03-22T01:48:09;7.60;99.90
52321;DHT22;38261;54.090;13.382;2024-03-22T01:49:30;7.60;99.90
52321;DHT22;38261;54.090;13.382;2024-03-22T01:50:52;7.60;99.90
52321;DHT22;38261;54.090;13.382;2024-03-22T01:52:14;7.60;99.90
52321;DHT22;38261;54.090;13.382;2024-03-22T01:53:36;7.60;99.90
52321;DHT22;38261;54.090;13.382;2024-03-22T01:54:58;7.60;99.90
52321;DHT22;38261;54.090;13.382;2024-03-22T01:56:19;7.60;99.90
52321;DHT22;38261;54.090;13.382;2024-03-22T01:57:40;7.60;99.90
52321;DHT22;38261;54.090;13.382;2024-03-22T01:59:04;7.60;99.90
52321;DHT22;38261;54.090;13.382;2024-03-22T02:00:25;7.60;99.90
52321;DHT22;38261;54.090;13.382;2024-03-22T02:01:47;7.60;99.90
52321;DHT22;38261;54.090;13.382;2024-03-22T02:03:09;7.60;99.90
52321;DHT22;38261;54.090;13.382;2024-03-22T02:04:31;7.60;99.90
52321;DHT22;38261;54.090;13.382;2024-03-22T02:05:52;7.60;99.90
52321;DHT22;38261;54.090;13.382;2024-03-22T02:07:14;7.60;99.90
52321;DHT22;38261;54.090;13.382;2024-03-22T02:08:35;7.60;99.90
52321;DHT22;38261;54.090;13.382;2024-03-22T02:09:56;7.60;99.90
52321;DHT22;38261;54.090;13.382;2024-03-22T02:11:18;7.60;99.90
52321;DHT22;38261;54.090;13.382;2024-03-22T02:12:40;7.60;99.90
52321;DHT22;38261;54.090;13.382;2024-03-22T02:14:01;7.60;99.90
52321;DHT22;38261;54.090;13.382;2024-03-22T02:15:22;7.60;99.90
52321;DHT22;38261;54.090;13.382;2024-03-22T02:16:43;7.60;99.90
52321;DHT22;38261;54.090;13.382;2024-03-22T02:18:06;7.60;99.90
52321;DHT22;38261;54.090;13.382;2024-03-22T02:19:27;7.60;99.90
52321;DHT22;38261;54.090;13.382;2024-03-22T02:20:48;7.60;99.90
52321;DHT22;38261;54.090;13.382;2024-03-22T02:22:09;7.60;99.90
52321;DHT22;38261;54.090;13.382;2024-03-22T02:23:40;7.60;99.90
52321;DHT22;38261;54.090;13.382;2024-03-22T02:25:02;7.60;99.90
52321;DHT22;38261;54.090;13.382;2024-03-22T02:26:23;7.70;99.90
52321;DHT22;38261;54.090;13.382;2024-03-22T02:27:44;7.60;99.90
52321;DHT22;38261;54.090;13.382;2024-03-22T02:29:05;7.70;99.90
52321;DHT22;38261;54.090;13.382;2024-03-22T02:30:26;7.70;99.90
52321;DHT22;38261;54.090;13.382;2024-03-22T02:31:47;7.70;99.90
52321;DHT22;38261;54.090;13.382;2024-03-22T02:33:09;7.70;99.90
52321;DHT22;38261;54.090;13.382;2024-03-22T02:34:30;7.70;99.90
52321;DHT22;38261;54.090;13.382;2024-03-22T02:35:51;7.70;99.90
52321;DHT22;38261;54.090;13.382;2024-03-22T02:37:13;7.70;99.90
52321;DHT22;38261;54.090;13.382;2024-03-22T02:38:34;7.70;99.90
52321;DHT22;38261;54.090;13.382;2024-03-22T02:39:55;7.70;99.90
52321;DHT22;38261;54.090;13.382;2024-03-22T02:41:16;7.70;99.90
52321;DHT22;38261;54.090;13.382;2024-03-22T02:42:37;7.70;99.90
52321;DHT22;38261;54.090;13.382;2024-03-22T02:43:59;7.70;99.90
52321;DHT22;38261;54.090;13.382;2024-03-22T02:45:20;7.70;99.90
52321;DHT22;38261;54.090;13.382;2024-03-22T02:46:41;7.70;99.90
52321;DHT22;38261;54.090;13.382;2024-03-22T02:48:02;7.70;99.90
52321;DHT22;38261;54.090;13.382;2024-03-22T02:49:25;7.70;99.90
52321;DHT22;38261;54.090;13.382;2024-03-22T02:50:46;7.70;99.90
52321;DHT22;38261;54.090;13.382;2024-03-22T02:52:07;7.70;99.90
52321;DHT22;38261;54.090;13.382;2024-03-22T02:53:29;7.70;99.90
52321;DHT22;38261;54.090;13.382;2024-03-22T02:54:50;7.70;99.90
52321;DHT22;38261;54.090;13.382;2024-03-22T02:56:11;7.70;99.90
52321;DHT22;38261;54.090;13.382;2024-03-22T02:57:32;7.70;99.90
52321;DHT22;38261;54.090;13.382;2024-03-22T02:58:53;7.60;99.90
52321;DHT22;38261;54.090;13.382;2024-03-22T03:00:15;7.60;99.90
52321;DHT22;38261;54.090;13.382;2024-03-22T03:01:36;7.60;99.90
52321;DHT22;38261;54.090;13.382;2024-03-22T03:02:58;7.70;99.90
52321;DHT22;38261;54.090;13.382;2024-03-22T03:04:20;7.70;99.90
52321;DHT22;38261;54.090;13.382;2024-03-22T03:05:42;7.70;99.90
52321;DHT22;38261;54.090;13.382;2024-03-22T03:07:03;7.70;99.90
52321;DHT22;38261;54.090;13.382;2024-03-22T03:08:24;7.70;99.90
52321;DHT22;38261;54.090;13.382;2024-03-22T03:09:46;7.70;99.90
52321;DHT22;38261;54.090;13.382;2024-03-22T03:11:07;7.70;99.90
52321;DHT22;38261;54.090;13.382;2024-03-22T03:12:28;7.70;99.90
52321;DHT22;38261;54.090;13.382;2024-03-22T03:13:49;7.70;99.90
52321;DHT22;38261;54.090;13.382;2024-03-22T03:15:10;7.80;99.90
52321;DHT22;38261;54.090;13.382;2024-03-22T03:16:32;7.80;99.90
52321;DHT22;38261;54.090;13.382;2024-03-22T03:17:53;7.80;99.90
52321;DHT22;38261;54.090;13.382;2024-03-22T03:19:14;7.80;99.90
52321;DHT22;38261;54.090;13.382;2024-03-22T03:20:35;7.80;99.90
52321;DHT22;38261;54.090;13.382;2024-03-22T03:21:56;7.80;99.90
52321;DHT22;38261;54.090;13.382;2024-03-22T03:23:18;7.70;99.90
52321;DHT22;38261;54.090;13.382;2024-03-22T03:24:39;7.70;99.90
52321;DHT22;38261;54.090;13.382;2024-03-22T03:26:00;7.80;99.90
52321;DHT22;38261;54.090;13.382;2024-03-22T03:27:21;7.80;99.90
52321;DHT22;38261;54.090;13.382;2024-03-22T03:28:42;7.80;99.90
52321;DHT22;38261;54.090;13.382;2024-03-22T03:30:04;7.80;99.90
52321;DHT22;38261;54.090;13.382;2024-03-22T03:31:26;7.80;99.90
52321;DHT22;38261;54.090;13.382;2024-03-22T03:32:47;7.80;99.90
52321;DHT22;38261;54.090;13.382;2024-03-22T03:34:08;7.80;99.90
52321;DHT22;38261;54.090;13.382;2024-03-22T03:35:29;7.80;99.90
52321;DHT22;38261;54.090;13.382;2024-03-22T03:36:50;7.90;99.90
52321;DHT22;38261;54.090;13.382;2024-03-22T03:38:12;7.90;99.90
52321;DHT22;38261;54.090;13.382;2024-03-22T03:39:33;7.90;99.90
52321;DHT22;38261;54.090;13.382;2024-03-22T03:40:54;7.90;99.90
52321;DHT22;38261;54.090;13.382;2024-03-22T03:42:16;7.90;99.90
52321;DHT22;38261;54.090;13.382;2024-03-22T03:43:37;7.90;99.90
52321;DHT22;38261;54.090;13.382;2024-03-22T03:44:58;7.90;99.90
52321;DHT22;38261;54.090;13.382;2024-03-22T03:46:19;7.90;99.90
52321;DHT22;38261;54.090;13.382;2024-03-22T03:47:40;7.90;99.90
52321;DHT22;38261;54.090;13.382;2024-03-22T03:49:01;7.90;99.90
52321;DHT22;38261;54.090;13.382;2024-03-22T03:51:26;7.90;99.90
52321;DHT22;38261;54.090;13.382;2024-03-22T03:52:47;7.90;99.90
52321;DHT22;38261;54.090;13.382;2024-03-22T03:54:08;7.90;99.90
52321;DHT22;38261;54.090;13.382;2024-03-22T03:55:30;7.90;99.90
52321;DHT22;38261;54.090;13.382;2024-03-22T03:56:51;7.90;99.90
52321;DHT22;38261;54.090;13.382;2024-03-22T03:58:12;7.90;99.90
52321;DHT22;38261;54.090;13.382;2024-03-22T03:59:33;7.90;99.90
52321;DHT22;38261;54.090;13.382;2024-03-22T04:00:55;7.90;99.90
52321;DHT22;38261;54.090;13.382;2024-03-22T04:02:16;7.90;99.90
52321;DHT22;38261;54.090;13.382;2024-03-22T04:03:37;8.00;99.90
52321;DHT22;38261;54.090;13.382;2024-03-22T04:04:58;7.90;99.90
52321;DHT22;38261;54.090;13.382;2024-03-22T04:06:19;8.00;99.90
52321;DHT22;38261;54.090;13.382;2024-03-22T04:07:41;8.00;99.90
52321;DHT22;38261;54.090;13.382;2024-03-22T04:09:03;8.00;99.90
52321;DHT22;38261;54.090;13.382;2024-03-22T04:10:24;8.00;99.90
52321;DHT22;38261;54.090;13.382;2024-03-22T04:11:46;8.00;99.90
52321;DHT22;38261;54.090;13.382;2024-03-22T04:13:08;8.00;99.90
52321;DHT22;38261;54.090;13.382;2024-03-22T04:14:30;8.00;99.90
52321;DHT22;38261;54.090;13.382;2024-03-22T04:15:51;8.00;99.90
52321;DHT22;38261;54.090;13.382;2024-03-22T04:17:13;8.00;99.90
52321;DHT22;38261;54.090;13.382;2024-03-22T04:18:34;8.00;99.90
52321;DHT22;38261;54.090;13.382;2024-03-22T04:19:55;8.00;99.90
52321;DHT22;38261;54.090;13.382;2024-03-22T04:21:17;8.00;99.90
52321;DHT22;38261;54.090;13.382;2024-03-22T04:22:38;8.00;99.90
52321;DHT22;38261;54.090;13.382;2024-03-22T04:23:59;8.00;99.90
52321;DHT22;38261;54.090;13.382;2024-03-22T04:25:20;8.00;99.90
52321;DHT22;38261;54.090;13.382;2024-03-22T04:26:41;8.00;99.90
52321;DHT22;38261;54.090;13.382;2024-03-22T04:28:03;8.00;99.90
52321;DHT22;38261;54.090;13.382;2024-03-22T04:29:24;8.00;99.90
52321;DHT22;38261;54.090;13.382;2024-03-22T04:31:04;8.00;99.90
52321;DHT22;38261;54.090;13.382;2024-03-22T04:32:25;8.00;99.90
52321;DHT22;38261;54.090;13.382;2024-03-22T04:33:47;8.00;99.90
52321;DHT22;38261;54.090;13.382;2024-03-22T04:35:08;8.00;99.90
52321;DHT22;38261;54.090;13.382;2024-03-22T04:36:29;8.00;99.90
52321;DHT22;38261;54.090;13.382;2024-03-22T04:37:51;8.00;99.90
52321;DHT22;38261;54.090;13.382;2024-03-22T04:39:12;8.10;99.90
52321;DHT22;38261;54.090;13.382;2024-03-22T04:40:34;8.10;99.90
52321;DHT22;38261;54.090;13.382;2024-03-22T04:41:56;8.10;99.90
52321;DHT22;38261;54.090;13.382;2024-03-22T04:43:17;8.10;99.90
52321;DHT22;38261;54.090;13.382;2024-03-22T04:44:39;8.10;99.90
52321;DHT22;38261;54.090;13.382;2024-03-22T04:46:00;8.20;99.90
52321;DHT22;38261;54.090;13.382;2024-03-22T04:47:21;8.10;99.90
52321;DHT22;38261;54.090;13.382;2024-03-22T04:48:43;8.10;99.90
52321;DHT22;38261;54.090;13.382;2024-03-22T04:50:04;8.10;99.90
52321;DHT22;38261;54.090;13.382;2024-03-22T04:51:26;8.20;99.90
52321;DHT22;38261;54.090;13.382;2024-03-22T04:52:47;8.20;99.90
52321;DHT22;38261;54.090;13.382;2024-03-22T04:54:08;8.20;99.90
52321;DHT22;38261;54.090;13.382;2024-03-22T04:55:29;8.20;99.90
52321;DHT22;38261;54.090;13.382;2024-03-22T04:56:50;8.20;99.90
52321;DHT22;38261;54.090;13.382;2024-03-22T04:58:16;8.20;99.90
52321;DHT22;38261;54.090;13.382;2024-03-22T04:59:37;8.20;99.90
52321;DHT22;38261;54.090;13.382;2024-03-22T05:00:59;8.20;99.90
52321;DHT22;38261;54.090;13.382;2024-03-22T05:02:20;8.20;99.90
52321;DHT22;38261;54.090;13.382;2024-03-22T05:03:41;8.30;99.90
52321;DHT22;38261;54.090;13.382;2024-03-22T05:05:02;8.20;99.90
52321;DHT22;38261;54.090;13.382;2024-03-22T05:06:24;8.20;99.90
52321;DHT22;38261;54.090;13.382;2024-03-22T05:07:45;8.20;99.90
52321;DHT22;38261;54.090;13.382;2024-03-22T05:09:06;8.30;99.90
52321;DHT22;38261;54.090;13.382;2024-03-22T05:10:31;8.20;99.90
52321;DHT22;38261;54.090;13.382;2024-03-22T05:11:52;8.20;99.90
52321;DHT22;38261;54.090;13.382;2024-03-22T05:13:13;8.20;99.90
52321;DHT22;38261;54.090;13.382;2024-03-22T05:14:34;8.30;99.90
52321;DHT22;38261;54.090;13.382;2024-03-22T05:15:56;8.30;99.90
52321;DHT22;38261;54.090;13.382;2024-03-22T05:17:17;8.30;99.90
52321;DHT22;38261;54.090;13.382;2024-03-22T05:18:38;8.30;99.90
52321;DHT22;38261;54.090;13.382;2024-03-22T05:20:01;8.30;99.90
52321;DHT22;38261;54.090;13.382;2024-03-22T05:21:26;8.30;99.90
52321;DHT22;38261;54.090;13.382;2024-03-22T05:22:48;8.30;99.90
52321;DHT22;38261;54.090;13.382;2024-03-22T05:24:09;8.30;99.90
52321;DHT22;38261;54.090;13.382;2024-03-22T05:25:30;8.40;99.90
52321;DHT22;38261;54.090;13.382;2024-03-22T05:26:51;8.40;99.90
52321;DHT22;38261;54.090;13.382;2024-03-22T05:28:13;8.40;99.90
52321;DHT22;38261;54.090;13.382;2024-03-22T05:29:34;8.40;99.90
52321;DHT22;38261;54.090;13.382;2024-03-22T05:30:55;8.40;99.90
52321;DHT22;38261;54.090;13.382;2024-03-22T05:32:16;8.50;99.90
52321;DHT22;38261;54.090;13.382;2024-03-22T05:33:38;8.50;99.90
52321;DHT22;38261;54.090;13.382;2024-03-22T05:34:59;8.50;99.90
52321;DHT22;38261;54.090;13.382;2024-03-22T05:36:20;8.50;99.90
52321;DHT22;38261;54.090;13.382;2024-03-22T05:37:41;8.50;99.90
52321;DHT22;38261;54.090;13.382;2024-03-22T05:39:02;8.50;99.90
52321;DHT22;38261;54.090;13.382;2024-03-22T05:40:24;8.50;99.90
52321;DHT22;38261;54.090;13.382;2024-03-22T05:41:45;8.50;99.90
52321;DHT22;38261;54.090;13.382;2024-03-22T05:43:06;8.60;99.90
52321;DHT22;38261;54.090;13.382;2024-03-22T05:44:28;8.60;99.90
52321;DHT22;38261;54.090;13.382;2024-03-22T05:45:49;8.60;99.90
52321;DHT22;38261;54.090;13.382;2024-03-22T05:47:10;8.60;99.90
52321;DHT22;38261;54.090;13.382;2024-03-22T05:48:31;8.60;99.90
52321;DHT22;38261;54.090;13.382;2024-03-22T05:49:53;8.70;99.90
52321;DHT22;38261;54.090;13.382;2024-03-22T05:51:14;8.70;99.90
52321;DHT22;38261;54.090;13.382;2024-03-22T05:52:35;8.70;99.90
52321;DHT22;38261;54.090;13.382;2024-03-22T05:53:57;8.70;99.90
52321;DHT22;38261;54.090;13.382;2024-03-22T05:55:18;8.70;99.90
52321;DHT22;38261;54.090;13.382;2024-03-22T05:56:39;8.70;99.90
52321;DHT22;38261;54.090;13.382;2024-03-22T05:58:00;8.70;99.90
52321;DHT22;38261;54.090;13.382;2024-03-22T05:59:21;8.70;99.90
52321;DHT22;38261;54.090;13.382;2024-03-22T06:00:43;8.70;99.90
52321;DHT22;38261;54.090;13.382;2024-03-22T06:02:04;8.80;99.90
52321;DHT22;38261;54.090;13.382;2024-03-22T06:03:26;8.80;99.90
52321;DHT22;38261;54.090;13.382;2024-03-22T06:04:47;8.80;99.90
52321;DHT22;38261;54.090;13.382;2024-03-22T06:06:08;8.80;99.90
52321;DHT22;38261;54.090;13.382;2024-03-22T06:07:29;8.80;99.90
52321;DHT22;38261;54.090;13.382;2024-03-22T06:08:51;8.80;99.90
52321;DHT22;38261;54.090;13.382;2024-03-22T06:10:17;8.90;99.90
52321;DHT22;38261;54.090;13.382;2024-03-22T06:11:39;8.90;99.90
52321;DHT22;38261;54.090;13.382;2024-03-22T06:13:04;8.90;99.90
52321;DHT22;38261;54.090;13.382;2024-03-22T06:14:26;8.90;99.90
52321;DHT22;38261;54.090;13.382;2024-03-22T06:15:50;8.90;99.90
52321;DHT22;38261;54.090;13.382;2024-03-22T06:17:12;8.90;99.90
52321;DHT22;38261;54.090;13.382;2024-03-22T06:18:33;9.00;99.90
52321;DHT22;38261;54.090;13.382;2024-03-22T06:19:54;9.00;99.90
52321;DHT22;38261;54.090;13.382;2024-03-22T06:21:15;9.00;99.90
52321;DHT22;38261;54.090;13.382;2024-03-22T06:22:42;9.00;99.90
52321;DHT22;38261;54.090;13.382;2024-03-22T06:24:04;9.00;99.90
52321;DHT22;38261;54.090;13.382;2024-03-22T06:25:25;9.00;99.90
52321;DHT22;38261;54.090;13.382;2024-03-22T06:26:46;9.00;99.90
52321;DHT22;38261;54.090;13.382;2024-03-22T06:28:07;9.00;99.90
52321;DHT22;38261;54.090;13.382;2024-03-22T06:29:28;9.00;99.90
52321;DHT22;38261;54.090;13.382;2024-03-22T06:30:50;9.00;99.90
52321;DHT22;38261;54.090;13.382;2024-03-22T06:32:11;9.00;99.90
52321;DHT22;38261;54.090;13.382;2024-03-22T06:33:32;9.00;99.90
52321;DHT22;38261;54.090;13.382;2024-03-22T06:34:54;9.00;99.90
52321;DHT22;38261;54.090;13.382;2024-03-22T06:36:15;9.00;99.90
52321;DHT22;38261;54.090;13.382;2024-03-22T06:37:37;9.00;99.90
52321;DHT22;38261;54.090;13.382;2024-03-22T06:38:59;9.00;99.90
52321;DHT22;38261;54.090;13.382;2024-03-22T06:40:20;9.00;99.90
52321;DHT22;38261;54.090;13.382;2024-03-22T06:41:41;9.00;99.90
52321;DHT22;38261;54.090;13.382;2024-03-22T06:43:03;9.00;99.90
52321;DHT22;38261;54.090;13.382;2024-03-22T06:44:24;9.00;99.90
52321;DHT22;38261;54.090;13.382;2024-03-22T06:45:45;9.00;99.90
52321;DHT22;38261;54.090;13.382;2024-03-22T06:47:06;9.00;99.90
52321;DHT22;38261;54.090;13.382;2024-03-22T06:48:27;9.00;99.90
52321;DHT22;38261;54.090;13.382;2024-03-22T06:49:49;9.00;99.90
52321;DHT22;38261;54.090;13.382;2024-03-22T06:51:10;9.00;99.90
52321;DHT22;38261;54.090;13.382;2024-03-22T06:52:31;9.00;99.90
52321;DHT22;38261;54.090;13.382;2024-03-22T06:53:52;9.10;99.90
52321;DHT22;38261;54.090;13.382;2024-03-22T06:55:14;9.00;99.90
52321;DHT22;38261;54.090;13.382;2024-03-22T06:56:35;9.00;99.90
52321;DHT22;38261;54.090;13.382;2024-03-22T06:57:56;9.00;99.90
52321;DHT22;38261;54.090;13.382;2024-03-22T06:59:17;9.00;99.90
52321;DHT22;38261;54.090;13.382;2024-03-22T07:00:38;9.00;99.90
52321;DHT22;38261;54.090;13.382;2024-03-22T07:02:00;9.10;99.90
52321;DHT22;38261;54.090;13.382;2024-03-22T07:03:21;9.10;99.90
52321;DHT22;38261;54.090;13.382;2024-03-22T07:04:42;9.00;99.90
52321;DHT22;38261;54.090;13.382;2024-03-22T07:06:04;9.00;99.90
52321;DHT22;38261;54.090;13.382;2024-03-22T07:07:28;9.10;99.90
52321;DHT22;38261;54.090;13.382;2024-03-22T07:08:49;9.10;99.90
52321;DHT22;38261;54.090;13.382;2024-03-22T07:10:10;9.10;99.90
52321;DHT22;38261;54.090;13.382;2024-03-22T07:11:32;9.10;99.90
52321;DHT22;38261;54.090;13.382;2024-03-22T07:12:56;9.10;99.90
52321;DHT22;38261;54.090;13.382;2024-03-22T07:14:17;9.10;99.90
52321;DHT22;38261;54.090;13.382;2024-03-22T07:15:39;9.20;99.90
52321;DHT22;38261;54.090;13.382;2024-03-22T07:17:00;9.20;99.90
52321;DHT22;38261;54.090;13.382;2024-03-22T07:18:21;9.20;99.90
52321;DHT22;38261;54.090;13.382;2024-03-22T07:19:43;9.20;99.90
52321;DHT22;38261;54.090;13.382;2024-03-22T07:21:04;9.20;99.90
52321;DHT22;38261;54.090;13.382;2024-03-22T07:22:25;9.20;99.90
52321;DHT22;38261;54.090;13.382;2024-03-22T07:23:46;9.20;99.90
52321;DHT22;38261;54.090;13.382;2024-03-22T07:25:08;9.20;99.90
52321;DHT22;38261;54.090;13.382;2024-03-22T07:26:30;9.30;99.90
52321;DHT22;38261;54.090;13.382;2024-03-22T07:27:52;9.30;99.90
52321;DHT22;38261;54.090;13.382;2024-03-22T07:29:13;9.30;99.90
52321;DHT22;38261;54.090;13.382;2024-03-22T07:30:35;9.30;99.90
52321;DHT22;38261;54.090;13.382;2024-03-22T07:31:56;9.40;99.90
52321;DHT22;38261;54.090;13.382;2024-03-22T07:33:18;9.40;99.90
52321;DHT22;38261;54.090;13.382;2024-03-22T07:34:39;9.50;99.90
52321;DHT22;38261;54.090;13.382;2024-03-22T07:36:03;9.50;99.90
52321;DHT22;38261;54.090;13.382;2024-03-22T07:37:24;9.60;99.90
52321;DHT22;38261;54.090;13.382;2024-03-22T07:38:46;9.60;99.90
52321;DHT22;38261;54.090;13.382;2024-03-22T07:40:07;9.60;99.90
52321;DHT22;38261;54.090;13.382;2024-03-22T07:41:28;9.70;99.90
52321;DHT22;38261;54.090;13.382;2024-03-22T07:42:50;9.70;99.90
52321;DHT22;38261;54.090;13.382;2024-03-22T07:44:11;9.70;99.90
52321;DHT22;38261;54.090;13.382;2024-03-22T07:45:34;9.70;99.90
52321;DHT22;38261;54.090;13.382;2024-03-22T07:46:55;9.70;99.90
52321;DHT22;38261;54.090;13.382;2024-03-22T07:48:16;9.70;99.90
52321;DHT22;38261;54.090;13.382;2024-03-22T07:49:38;9.70;99.90
52321;DHT22;38261;54.090;13.382;2024-03-22T07:51:00;9.70;99.90
52321;DHT22;38261;54.090;13.382;2024-03-22T07:52:22;9.70;99.90
52321;DHT22;38261;54.090;13.382;2024-03-22T07:53:43;9.70;99.90
52321;DHT22;38261;54.090;13.382;2024-03-22T07:55:04;9.70;99.90
52321;DHT22;38261;54.090;13.382;2024-03-22T07:56:26;9.70;99.90
52321;DHT22;38261;54.090;13.382;2024-03-22T07:57:47;9.70;99.90
52321;DHT22;38261;54.090;13.382;2024-03-22T07:59:08;9.70;99.90
52321;DHT22;38261;54.090;13.382;2024-03-22T08:00:30;9.80;99.90
52321;DHT22;38261;54.090;13.382;2024-03-22T08:01:52;9.80;99.90
52321;DHT22;38261;54.090;13.382;2024-03-22T08:03:16;9.90;99.90
52321;DHT22;38261;54.090;13.382;2024-03-22T08:04:37;10.00;99.90
52321;DHT22;38261;54.090;13.382;2024-03-22T08:05:58;10.00;99.90
52321;DHT22;38261;54.090;13.382;2024-03-22T08:07:20;10.00;99.90
52321;DHT22;38261;54.090;13.382;2024-03-22T08:08:41;10.00;99.90
52321;DHT22;38261;54.090;13.382;2024-03-22T08:10:02;10.10;99.90
52321;DHT22;38261;54.090;13.382;2024-03-22T08:11:27;10.10;99.90
52321;DHT22;38261;54.090;13.382;2024-03-22T08:12:48;10.10;99.90
52321;DHT22;38261;54.090;13.382;2024-03-22T08:14:09;10.20;99.90
52321;DHT22;38261;54.090;13.382;2024-03-22T08:15:30;10.20;99.90
52321;DHT22;38261;54.090;13.382;2024-03-22T08:16:52;10.30;99.90
52321;DHT22;38261;54.090;13.382;2024-03-22T08:18:13;10.30;99.90
52321;DHT22;38261;54.090;13.382;2024-03-22T08:19:34;10.30;99.90
52321;DHT22;38261;54.090;13.382;2024-03-22T08:20:56;10.40;99.90
52321;DHT22;38261;54.090;13.382;2024-03-22T08:22:17;10.40;99.90
52321;DHT22;38261;54.090;13.382;2024-03-22T08:23:38;10.30;99.90
52321;DHT22;38261;54.090;13.382;2024-03-22T08:24:59;10.40;99.90
52321;DHT22;38261;54.090;13.382;2024-03-22T08:26:23;10.40;99.90
52321;DHT22;38261;54.090;13.382;2024-03-22T08:27:44;10.40;99.90
52321;DHT22;38261;54.090;13.382;2024-03-22T08:29:06;10.50;99.90
52321;DHT22;38261;54.090;13.382;2024-03-22T08:30:28;10.60;99.90
52321;DHT22;38261;54.090;13.382;2024-03-22T08:31:49;10.60;99.90
52321;DHT22;38261;54.090;13.382;2024-03-22T08:33:11;10.60;99.90
52321;DHT22;38261;54.090;13.382;2024-03-22T08:34:35;10.60;99.90
52321;DHT22;38261;54.090;13.382;2024-03-22T08:35:56;10.70;99.90